createdAt,value
2017-02-23T00:00:25.145Z,0
2017-02-23T00:01:25.138Z,0
2017-02-23T00:02:25.114Z,0
2017-02-23T00:03:25.102Z,0
2017-02-23T00:04:24.668Z,0
2017-02-23T00:05:25.046Z,0
2017-02-23T00:06:25.046Z,0
2017-02-23T00:07:24.992Z,0
2017-02-23T00:08:24.980Z,0
2017-02-23T00:09:24.562Z,0
2017-02-23T00:10:24.964Z,0
2017-02-23T00:11:24.965Z,0
2017-02-23T00:12:24.913Z,0
2017-02-23T00:13:24.898Z,0
2017-02-23T00:14:24.851Z,0
2017-02-23T00:15:24.901Z,0
2017-02-23T00:16:24.836Z,0
2017-02-23T00:17:24.833Z,0
2017-02-23T00:18:24.810Z,0
2017-02-23T00:19:24.764Z,0
2017-02-23T00:20:24.772Z,0
2017-02-23T00:21:24.740Z,0
2017-02-23T00:22:24.726Z,0
2017-02-23T00:23:24.696Z,0
2017-02-23T00:24:24.685Z,0
2017-02-23T00:25:24.686Z,0
2017-02-23T00:26:24.678Z,0
2017-02-23T00:27:24.634Z,0
2017-02-23T00:28:24.635Z,0
2017-02-23T00:29:24.569Z,0
2017-02-23T00:30:24.547Z,0
2017-02-23T00:31:24.542Z,0
2017-02-23T00:32:24.529Z,0
2017-02-23T00:33:24.499Z,0
2017-02-23T00:34:24.494Z,0
2017-02-23T00:35:24.475Z,0
2017-02-23T00:36:24.464Z,0
2017-02-23T00:37:24.433Z,0
2017-02-23T00:38:24.445Z,0
2017-02-23T00:39:24.374Z,0
2017-02-23T00:40:24.386Z,0
2017-02-23T00:41:24.358Z,0
2017-02-23T00:42:24.362Z,0
2017-02-23T00:43:24.323Z,0
2017-02-23T00:44:24.304Z,0
2017-02-23T00:45:24.326Z,0
2017-02-23T00:46:23.890Z,0
2017-02-23T00:47:24.258Z,0
2017-02-23T00:48:24.219Z,0
2017-02-23T00:49:24.193Z,0
2017-02-23T00:50:23.810Z,0
2017-02-23T00:51:24.150Z,0
2017-02-23T00:52:24.179Z,0
2017-02-23T00:53:23.745Z,0
2017-02-23T00:54:24.113Z,0
2017-02-23T00:55:24.093Z,0
2017-02-23T00:56:24.090Z,0
2017-02-23T00:57:24.052Z,0
2017-02-23T00:58:23.658Z,0
2017-02-23T00:59:23.642Z,0
2017-02-23T01:00:24.005Z,0
2017-02-23T01:01:23.980Z,0
2017-02-23T01:02:23.951Z,0
2017-02-23T01:03:23.926Z,0
2017-02-23T01:04:23.947Z,0
2017-02-23T01:05:23.514Z,0
2017-02-23T01:06:23.476Z,0
2017-02-23T01:07:23.474Z,0
2017-02-23T01:08:23.454Z,0
2017-02-23T01:09:23.837Z,0
2017-02-23T01:10:23.800Z,0
2017-02-23T01:11:23.794Z,0
2017-02-23T01:12:23.735Z,0
2017-02-23T01:13:23.738Z,0
2017-02-23T01:14:23.758Z,0
2017-02-23T01:15:23.328Z,0
2017-02-23T01:16:23.695Z,0
2017-02-23T01:17:23.285Z,0
2017-02-23T01:18:23.664Z,0
2017-02-23T01:19:23.632Z,0
2017-02-23T01:20:23.612Z,0
2017-02-23T01:21:23.243Z,0
2017-02-23T01:22:23.192Z,0
2017-02-23T01:23:23.548Z,0
2017-02-23T01:24:23.162Z,0
2017-02-23T01:25:23.149Z,0
2017-02-23T01:26:23.502Z,0
2017-02-23T01:27:23.541Z,0
2017-02-23T01:28:23.487Z,0
2017-02-23T01:29:23.420Z,0
2017-02-23T01:30:23.426Z,0
2017-02-23T01:31:23.426Z,0
2017-02-23T01:32:23.398Z,0
2017-02-23T01:33:23.377Z,0
2017-02-23T01:34:23.354Z,0
2017-02-23T01:35:23.351Z,0
2017-02-23T01:36:23.301Z,0
2017-02-23T01:37:23.298Z,0
2017-02-23T01:38:22.893Z,0
2017-02-23T01:39:23.278Z,0
2017-02-23T01:40:22.865Z,0
2017-02-23T01:41:23.226Z,0
2017-02-23T01:42:22.815Z,0
2017-02-23T01:43:23.187Z,0
2017-02-23T01:44:22.754Z,0
2017-02-23T01:45:22.784Z,0
2017-02-23T01:46:23.118Z,0
2017-02-23T01:47:23.118Z,0
2017-02-23T01:48:23.107Z,0
2017-02-23T01:49:22.682Z,0
2017-02-23T01:50:22.297Z,0
2017-02-23T01:51:23.066Z,0
2017-02-23T01:52:23.032Z,0
2017-02-23T01:53:22.993Z,0
2017-02-23T01:54:23.005Z,0
2017-02-23T01:55:22.580Z,0
2017-02-23T01:56:22.922Z,0
2017-02-23T01:57:22.918Z,0
2017-02-23T01:58:22.516Z,0
2017-02-23T01:59:22.877Z,0
2017-02-23T02:00:22.492Z,0
2017-02-23T02:01:22.478Z,0
2017-02-23T02:02:22.833Z,0
2017-02-23T02:03:22.412Z,0
2017-02-23T02:04:22.818Z,0
2017-02-23T02:05:22.769Z,0
2017-02-23T02:06:22.750Z,0
2017-02-23T02:07:21.962Z,0
2017-02-23T02:08:22.317Z,0
2017-02-23T02:09:22.320Z,0
2017-02-23T02:10:22.291Z,0
2017-02-23T02:11:22.311Z,0
2017-02-23T02:12:22.286Z,0
2017-02-23T02:13:22.628Z,0
2017-02-23T02:14:22.248Z,0
2017-02-23T02:15:22.579Z,0
2017-02-23T02:16:22.193Z,0
2017-02-23T02:17:22.182Z,0
2017-02-23T02:18:22.144Z,0
2017-02-23T02:19:22.521Z,0
2017-02-23T02:20:22.080Z,0
2017-02-23T02:21:22.100Z,0
2017-02-23T02:22:22.088Z,0
2017-02-23T02:23:22.047Z,0
2017-02-23T02:24:22.407Z,0
2017-02-23T02:25:22.379Z,0
2017-02-23T02:26:22.376Z,0
2017-02-23T02:27:21.983Z,0
2017-02-23T02:28:22.378Z,0
2017-02-23T02:29:21.943Z,0
2017-02-23T02:30:22.328Z,0
2017-02-23T02:31:22.276Z,0
2017-02-23T02:32:21.880Z,0
2017-02-23T02:33:21.856Z,0
2017-02-23T02:34:21.849Z,0
2017-02-23T02:35:21.839Z,0
2017-02-23T02:36:22.201Z,0
2017-02-23T02:37:22.172Z,0
2017-02-23T02:38:22.176Z,0
2017-02-23T02:39:21.377Z,0
2017-02-23T02:40:21.713Z,0
2017-02-23T02:41:21.723Z,0
2017-02-23T02:42:21.708Z,0
2017-02-23T02:43:22.070Z,0
2017-02-23T02:44:22.017Z,0
2017-02-23T02:45:22.015Z,0
2017-02-23T02:46:21.621Z,0
2017-02-23T02:47:21.975Z,0
2017-02-23T02:48:21.582Z,0
2017-02-23T02:49:21.979Z,0
2017-02-23T02:50:21.532Z,0
2017-02-23T02:51:21.894Z,0
2017-02-23T02:52:21.888Z,0
2017-02-23T02:53:21.887Z,0
2017-02-23T02:54:21.818Z,0
2017-02-23T02:55:21.875Z,0
2017-02-23T02:56:21.789Z,0
2017-02-23T02:57:21.407Z,0
2017-02-23T02:58:21.787Z,0
2017-02-23T02:59:21.354Z,0
2017-02-23T03:00:21.747Z,0
2017-02-23T03:01:21.761Z,0
2017-02-23T03:02:21.302Z,0
2017-02-23T03:03:21.699Z,0
2017-02-23T03:04:21.685Z,0
2017-02-23T03:05:21.669Z,0
2017-02-23T03:06:21.649Z,0
2017-02-23T03:07:21.236Z,0
2017-02-23T03:08:21.591Z,0
2017-02-23T03:09:21.595Z,0
2017-02-23T03:10:21.594Z,0
2017-02-23T03:11:21.156Z,0
2017-02-23T03:12:21.152Z,0
2017-02-23T03:13:21.492Z,0
2017-02-23T03:14:21.458Z,0
2017-02-23T03:15:21.453Z,0
2017-02-23T03:16:21.063Z,0
2017-02-23T03:17:21.442Z,0
2017-02-23T03:18:21.014Z,0
2017-02-23T03:19:20.982Z,0
2017-02-23T03:20:21.365Z,0
2017-02-23T03:21:21.329Z,0
2017-02-23T03:22:21.335Z,0
2017-02-23T03:23:21.314Z,0
2017-02-23T03:24:21.296Z,0
2017-02-23T03:25:20.879Z,0
2017-02-23T03:26:21.249Z,0
2017-02-23T03:27:20.853Z,0
2017-02-23T03:28:20.832Z,0
2017-02-23T03:29:21.218Z,0
2017-02-23T03:30:20.768Z,0
2017-02-23T03:31:20.763Z,0
2017-02-23T03:32:21.157Z,0
2017-02-23T03:33:20.397Z,0
2017-02-23T03:34:21.101Z,0
2017-02-23T03:35:20.702Z,0
2017-02-23T03:36:21.072Z,0
2017-02-23T03:37:21.062Z,0
2017-02-23T03:38:20.643Z,0
2017-02-23T03:39:20.606Z,0
2017-02-23T03:40:20.989Z,0
2017-02-23T03:41:20.595Z,0
2017-02-23T03:42:20.942Z,0
2017-02-23T03:43:20.554Z,0
2017-02-23T03:44:20.920Z,0
2017-02-23T03:45:20.930Z,0
2017-02-23T03:46:20.118Z,0
2017-02-23T03:47:20.856Z,0
2017-02-23T03:48:20.824Z,0
2017-02-23T03:49:20.427Z,0
2017-02-23T03:50:20.813Z,0
2017-02-23T03:51:20.777Z,0
2017-02-23T03:52:20.393Z,0
2017-02-23T03:53:20.766Z,0
2017-02-23T03:54:19.949Z,0
2017-02-23T03:55:20.714Z,0
2017-02-23T03:56:20.297Z,0
2017-02-23T03:57:20.668Z,0
2017-02-23T03:58:19.878Z,0
2017-02-23T03:59:20.680Z,0
2017-02-23T04:00:20.633Z,0
2017-02-23T04:01:20.225Z,0
2017-02-23T04:02:20.576Z,0
2017-02-23T04:03:20.175Z,0
2017-02-23T04:04:20.553Z,0
2017-02-23T04:05:20.554Z,0
2017-02-23T04:06:20.501Z,0
2017-02-23T04:07:20.142Z,0
2017-02-23T04:08:20.493Z,0
2017-02-23T04:09:20.065Z,0
2017-02-23T04:10:20.436Z,0
2017-02-23T04:11:20.415Z,0
2017-02-23T04:12:20.017Z,0
2017-02-23T04:13:19.990Z,0
2017-02-23T04:14:19.983Z,0
2017-02-23T04:15:20.343Z,0
2017-02-23T04:16:19.941Z,0
2017-02-23T04:17:20.328Z,0
2017-02-23T04:18:19.877Z,0
2017-02-23T04:19:19.886Z,0
2017-02-23T04:20:19.871Z,0
2017-02-23T04:21:19.846Z,0
2017-02-23T04:22:19.837Z,0
2017-02-23T04:23:19.802Z,0
2017-02-23T04:24:20.173Z,0
2017-02-23T04:25:20.151Z,0
2017-02-23T04:26:20.122Z,0
2017-02-23T04:27:20.137Z,0
2017-02-23T04:28:20.130Z,0
2017-02-23T04:29:20.087Z,0
2017-02-23T04:30:19.686Z,0
2017-02-23T04:31:19.662Z,0
2017-02-23T04:32:19.634Z,0
2017-02-23T04:33:19.592Z,0
2017-02-23T04:34:19.986Z,0
2017-02-23T04:35:19.597Z,0
2017-02-23T04:36:19.946Z,0
2017-02-23T04:37:19.939Z,0
2017-02-23T04:38:19.902Z,0
2017-02-23T04:39:19.910Z,0
2017-02-23T04:40:19.876Z,0
2017-02-23T04:41:19.831Z,0
2017-02-23T04:42:19.490Z,0
2017-02-23T04:43:19.861Z,0
2017-02-23T04:44:19.875Z,0
2017-02-23T04:45:19.794Z,0
2017-02-23T04:46:19.777Z,0
2017-02-23T04:47:19.365Z,0
2017-02-23T04:48:19.713Z,0
2017-02-23T04:49:19.325Z,0
2017-02-23T04:50:19.693Z,0
2017-02-23T04:51:18.895Z,0
2017-02-23T04:52:19.253Z,0
2017-02-23T04:53:19.243Z,0
2017-02-23T04:54:19.631Z,0
2017-02-23T04:55:19.199Z,0
2017-02-23T04:56:19.198Z,0
2017-02-23T04:57:19.154Z,0
2017-02-23T04:58:19.570Z,0
2017-02-23T04:59:19.514Z,0
2017-02-23T05:00:19.119Z,0
2017-02-23T05:01:19.082Z,0
2017-02-23T05:02:19.472Z,0
2017-02-23T05:03:19.068Z,0
2017-02-23T05:04:19.044Z,0
2017-02-23T05:05:19.035Z,0
2017-02-23T05:06:19.379Z,0
2017-02-23T05:07:19.383Z,0
2017-02-23T05:08:18.973Z,0
2017-02-23T05:09:19.328Z,0
2017-02-23T05:10:19.319Z,0
2017-02-23T05:11:19.296Z,0
2017-02-23T05:12:19.280Z,0
2017-02-23T05:13:19.260Z,0
2017-02-23T05:14:19.227Z,0
2017-02-23T05:15:19.251Z,0
2017-02-23T05:16:19.224Z,0
2017-02-23T05:17:19.214Z,0
2017-02-23T05:18:19.186Z,0
2017-02-23T05:19:18.750Z,0
2017-02-23T05:20:19.127Z,0
2017-02-23T05:21:19.102Z,0
2017-02-23T05:22:19.080Z,0
2017-02-23T05:23:19.045Z,0
2017-02-23T05:24:19.050Z,0
2017-02-23T05:25:18.642Z,0
2017-02-23T05:26:18.997Z,0
2017-02-23T05:27:18.592Z,0
2017-02-23T05:28:18.973Z,0
2017-02-23T05:29:18.972Z,0
2017-02-23T05:30:18.923Z,0
2017-02-23T05:31:18.917Z,0
2017-02-23T05:32:18.496Z,0
2017-02-23T05:33:18.862Z,0
2017-02-23T05:34:18.471Z,0
2017-02-23T05:35:18.823Z,0
2017-02-23T05:36:18.825Z,0
2017-02-23T05:37:18.831Z,0
2017-02-23T05:38:18.774Z,0
2017-02-23T05:39:18.377Z,0
2017-02-23T05:40:18.372Z,0
2017-02-23T05:41:18.737Z,0
2017-02-23T05:42:18.687Z,0
2017-02-23T05:43:18.700Z,0
2017-02-23T05:44:18.264Z,0
2017-02-23T05:45:18.299Z,0
2017-02-23T05:46:18.614Z,0
2017-02-23T05:47:18.261Z,0
2017-02-23T05:48:18.588Z,0
2017-02-23T05:49:18.184Z,0
2017-02-23T05:50:17.791Z,0
2017-02-23T05:51:18.150Z,0
2017-02-23T05:52:18.156Z,0
2017-02-23T05:53:17.710Z,0
2017-02-23T05:54:18.479Z,5
2017-02-23T05:55:18.472Z,5
2017-02-23T05:56:18.461Z,5
2017-02-23T05:57:18.420Z,5
2017-02-23T05:58:18.012Z,5
2017-02-23T05:59:18.416Z,10
2017-02-23T06:00:18.353Z,10
2017-02-23T06:01:17.958Z,10
2017-02-23T06:02:18.335Z,15
2017-02-23T06:03:18.309Z,15
2017-02-23T06:04:17.928Z,20
2017-02-23T06:05:18.293Z,20
2017-02-23T06:06:17.853Z,25
2017-02-23T06:07:18.221Z,25
2017-02-23T06:08:18.250Z,30
2017-02-23T06:09:18.182Z,30
2017-02-23T06:10:18.239Z,35
2017-02-23T06:11:18.141Z,40
2017-02-23T06:12:18.116Z,40
2017-02-23T06:13:17.728Z,45
2017-02-23T06:14:18.128Z,50
2017-02-23T06:15:18.086Z,55
2017-02-23T06:16:17.675Z,60
2017-02-23T06:17:17.669Z,60
2017-02-23T06:18:18.066Z,65
2017-02-23T06:19:17.975Z,70
2017-02-23T06:20:18.023Z,75
2017-02-23T06:21:17.965Z,85
2017-02-23T06:22:17.977Z,90
2017-02-23T06:23:17.946Z,95
2017-02-23T06:24:17.945Z,95
2017-02-23T06:25:17.119Z,105
2017-02-23T06:26:17.498Z,110
2017-02-23T06:27:17.842Z,115
2017-02-23T06:28:17.431Z,120
2017-02-23T06:29:17.039Z,130
2017-02-23T06:30:17.792Z,145
2017-02-23T06:31:17.385Z,155
2017-02-23T06:32:17.386Z,170
2017-02-23T06:33:17.355Z,170
2017-02-23T06:34:16.957Z,175
2017-02-23T06:35:17.707Z,175
2017-02-23T06:36:17.291Z,175
2017-02-23T06:37:17.282Z,180
2017-02-23T06:38:17.628Z,200
2017-02-23T06:39:17.631Z,215
2017-02-23T06:40:17.590Z,240
2017-02-23T06:41:17.594Z,255
2017-02-23T06:42:17.195Z,250
2017-02-23T06:43:17.575Z,300
2017-02-23T06:44:17.550Z,315
2017-02-23T06:45:17.541Z,325
2017-02-23T06:46:16.731Z,350
2017-02-23T06:47:17.489Z,360
2017-02-23T06:48:17.497Z,360
2017-02-23T06:49:17.458Z,370
2017-02-23T06:50:16.280Z,370
2017-02-23T06:51:17.015Z,360
2017-02-23T06:52:17.390Z,360
2017-02-23T06:53:17.375Z,330
2017-02-23T06:54:17.366Z,340
2017-02-23T06:55:16.929Z,420
2017-02-23T06:56:17.337Z,490
2017-02-23T06:57:16.922Z,515
2017-02-23T06:58:16.516Z,540
2017-02-23T06:59:17.264Z,555
2017-02-23T07:00:16.471Z,540
2017-02-23T07:01:17.220Z,485
2017-02-23T07:02:16.812Z,500
2017-02-23T07:03:17.163Z,535
2017-02-23T07:04:16.770Z,530
2017-02-23T07:05:16.759Z,550
2017-02-23T07:06:16.370Z,590
2017-02-23T07:07:17.108Z,565
2017-02-23T07:08:16.735Z,560
2017-02-23T07:09:17.086Z,555
2017-02-23T07:10:17.042Z,530
2017-02-23T07:11:17.019Z,515
2017-02-23T07:12:16.628Z,550
2017-02-23T07:13:16.994Z,645
2017-02-23T07:14:16.596Z,550
2017-02-23T07:15:16.943Z,560
2017-02-23T07:16:16.926Z,525
2017-02-23T07:17:16.915Z,775
2017-02-23T07:18:16.547Z,810
2017-02-23T07:19:16.907Z,825
2017-02-23T07:20:16.888Z,860
2017-02-23T07:21:16.482Z,875
2017-02-23T07:22:16.847Z,910
2017-02-23T07:23:16.820Z,950
2017-02-23T07:24:16.783Z,1075
2017-02-23T07:25:16.780Z,1035
2017-02-23T07:26:16.779Z,935
2017-02-23T07:27:16.372Z,940
2017-02-23T07:28:16.738Z,970
2017-02-23T07:29:16.750Z,975
2017-02-23T07:30:16.302Z,1075
2017-02-23T07:31:16.725Z,1060
2017-02-23T07:32:16.278Z,1110
2017-02-23T07:33:16.254Z,1175
2017-02-23T07:34:16.243Z,1195
2017-02-23T07:35:16.598Z,1140
2017-02-23T07:36:16.571Z,1170
2017-02-23T07:37:16.569Z,1215
2017-02-23T07:38:16.545Z,1255
2017-02-23T07:39:16.152Z,1040
2017-02-23T07:40:16.118Z,1160
2017-02-23T07:41:16.121Z,1200
2017-02-23T07:42:15.730Z,1310
2017-02-23T07:43:16.056Z,1270
2017-02-23T07:44:16.478Z,1200
2017-02-23T07:45:16.457Z,1095
2017-02-23T07:46:16.417Z,1025
2017-02-23T07:47:16.025Z,985
2017-02-23T07:48:16.374Z,1015
2017-02-23T07:49:15.990Z,1090
2017-02-23T07:50:15.954Z,1200
2017-02-23T07:51:16.322Z,1280
2017-02-23T07:52:15.956Z,1385
2017-02-23T07:53:15.925Z,1560
2017-02-23T07:54:16.277Z,1505
2017-02-23T07:55:16.253Z,1460
2017-02-23T07:56:16.217Z,1460
2017-02-23T07:57:16.256Z,1650
2017-02-23T07:58:16.215Z,1585
2017-02-23T07:59:15.807Z,1520
2017-02-23T08:00:16.175Z,1405
2017-02-23T08:01:16.177Z,1380
2017-02-23T08:02:16.138Z,1365
2017-02-23T08:03:16.140Z,1425
2017-02-23T08:04:16.148Z,1345
2017-02-23T08:05:16.084Z,1410
2017-02-23T08:06:15.657Z,1445
2017-02-23T08:07:15.683Z,1530
2017-02-23T08:08:16.036Z,1365
2017-02-23T08:09:16.006Z,1300
2017-02-23T08:10:15.997Z,1315
2017-02-23T08:11:15.984Z,1260
2017-02-23T08:12:15.576Z,1235
2017-02-23T08:13:15.956Z,1250
2017-02-23T08:14:15.960Z,1260
2017-02-23T08:15:15.556Z,1290
2017-02-23T08:16:15.885Z,1330
2017-02-23T08:17:15.888Z,1380
2017-02-23T08:18:15.904Z,1295
2017-02-23T08:19:15.866Z,1185
2017-02-23T08:20:15.429Z,1030
2017-02-23T08:21:15.826Z,930
2017-02-23T08:22:15.788Z,1005
2017-02-23T08:23:15.422Z,990
2017-02-23T08:24:14.597Z,1020
2017-02-23T08:25:15.371Z,1015
2017-02-23T08:26:15.557Z,1115
2017-02-23T08:27:15.322Z,1050
2017-02-23T08:28:15.681Z,1035
2017-02-23T08:29:15.686Z,985
2017-02-23T08:30:15.295Z,960
2017-02-23T08:31:15.630Z,975
2017-02-23T08:32:15.430Z,1090
2017-02-23T08:33:15.581Z,1470
2017-02-23T08:34:15.194Z,1555
2017-02-23T08:35:15.202Z,1615
2017-02-23T08:36:14.810Z,1545
2017-02-23T08:37:15.364Z,1320
2017-02-23T08:38:14.735Z,1285
2017-02-23T08:39:14.759Z,1325
2017-02-23T08:40:14.328Z,1320
2017-02-23T08:41:15.477Z,1340
2017-02-23T08:42:15.464Z,1390
2017-02-23T08:43:15.437Z,1435
2017-02-23T08:44:15.046Z,1570
2017-02-23T08:45:15.029Z,1630
2017-02-23T08:46:15.001Z,1570
2017-02-23T08:47:14.614Z,1530
2017-02-23T08:48:14.539Z,1610
2017-02-23T08:49:15.308Z,1805
2017-02-23T08:50:15.354Z,1795
2017-02-23T08:51:14.522Z,1885
2017-02-23T08:52:14.120Z,1685
2017-02-23T08:53:14.874Z,1710
2017-02-23T08:54:14.840Z,1650
2017-02-23T08:55:14.856Z,1535
2017-02-23T08:56:14.830Z,1560
2017-02-23T08:57:14.792Z,1570
2017-02-23T08:58:14.381Z,1595
2017-02-23T08:59:15.130Z,1480
2017-02-23T09:00:14.773Z,1365
2017-02-23T09:01:14.727Z,1335
2017-02-23T09:02:14.325Z,1345
2017-02-23T09:03:15.079Z,1420
2017-02-23T09:04:14.301Z,1410
2017-02-23T09:05:14.659Z,1665
2017-02-23T09:06:14.259Z,1895
2017-02-23T09:07:28.395Z,2045
2017-02-23T09:08:14.633Z,2030
2017-02-23T09:09:14.988Z,2025
2017-02-23T09:10:14.197Z,2115
2017-02-23T09:11:14.565Z,2125
2017-02-23T09:12:14.594Z,2240
2017-02-23T09:13:15.109Z,2235
2017-02-23T09:14:14.527Z,2115
2017-02-23T09:15:14.879Z,1610
2017-02-23T09:16:14.104Z,1540
2017-02-23T09:17:14.844Z,1590
2017-02-23T09:18:14.449Z,1840
2017-02-23T09:19:14.824Z,2140
2017-02-23T09:20:14.034Z,2295
2017-02-23T09:21:14.398Z,2105
2017-02-23T09:22:14.766Z,2170
2017-02-23T09:23:14.352Z,2400
2017-02-23T09:24:14.726Z,2510
2017-02-23T09:25:14.714Z,2890
2017-02-23T09:26:14.706Z,3050
2017-02-23T09:27:14.310Z,2480
2017-02-23T09:28:14.671Z,2175
2017-02-23T09:29:14.642Z,1645
2017-02-23T09:30:14.623Z,1465
2017-02-23T09:31:14.638Z,1445
2017-02-23T09:32:14.596Z,1505
2017-02-23T09:33:14.204Z,1660
2017-02-23T09:34:14.011Z,1715
2017-02-23T09:35:14.778Z,1930
2017-02-23T09:36:14.130Z,2120
2017-02-23T09:37:14.512Z,2625
2017-02-23T09:38:14.502Z,2375
2017-02-23T09:39:14.467Z,2065
2017-02-23T09:40:14.319Z,2010
2017-02-23T09:41:14.659Z,2465
2017-02-23T09:42:27.796Z,2690
2017-02-23T09:43:14.014Z,2475
2017-02-23T09:44:13.640Z,2480
2017-02-23T09:45:14.401Z,2470
2017-02-23T09:46:13.963Z,2535
2017-02-23T09:47:13.961Z,2605
2017-02-23T09:48:13.550Z,2660
2017-02-23T09:49:14.322Z,2505
2017-02-23T09:50:13.936Z,2485
2017-02-23T09:51:14.290Z,2610
2017-02-23T09:52:13.889Z,2575
2017-02-23T09:53:13.871Z,2635
2017-02-23T09:54:13.857Z,2525
2017-02-23T09:55:14.234Z,2335
2017-02-23T09:56:14.238Z,2460
2017-02-23T09:57:13.470Z,2305
2017-02-23T09:58:13.440Z,2370
2017-02-23T09:59:13.443Z,2970
2017-02-23T10:00:13.460Z,2605
2017-02-23T10:01:14.197Z,2845
2017-02-23T10:02:14.154Z,3150
2017-02-23T10:03:14.099Z,2950
2017-02-23T10:04:14.088Z,2850
2017-02-23T10:05:14.050Z,2625
2017-02-23T10:06:13.288Z,2475
2017-02-23T10:07:13.659Z,2525
2017-02-23T10:08:14.016Z,2785
2017-02-23T10:09:13.637Z,2930
2017-02-23T10:10:13.220Z,2885
2017-02-23T10:11:27.602Z,2620
2017-02-23T10:12:12.990Z,2170
2017-02-23T10:13:13.946Z,2820
2017-02-23T10:14:13.939Z,2820
2017-02-23T10:15:13.745Z,2915
2017-02-23T10:16:14.081Z,2930
2017-02-23T10:17:13.906Z,2955
2017-02-23T10:18:13.838Z,3140
2017-02-23T10:19:13.851Z,3030
2017-02-23T10:20:13.446Z,2980
2017-02-23T10:21:13.819Z,3090
2017-02-23T10:22:13.997Z,2865
2017-02-23T10:23:13.804Z,2465
2017-02-23T10:24:13.768Z,2460
2017-02-23T10:25:13.751Z,2785
2017-02-23T10:26:13.749Z,2525
2017-02-23T10:27:13.726Z,2435
2017-02-23T10:28:13.303Z,2490
2017-02-23T10:29:13.677Z,2485
2017-02-23T10:30:13.704Z,2350
2017-02-23T10:31:13.683Z,2460
2017-02-23T10:32:13.656Z,2575
2017-02-23T10:33:13.248Z,2475
2017-02-23T10:34:13.595Z,2550
2017-02-23T10:35:13.580Z,2725
2017-02-23T10:36:12.784Z,2640
2017-02-23T10:37:13.174Z,2605
2017-02-23T10:38:13.536Z,2725
2017-02-23T10:39:13.512Z,2720
2017-02-23T10:40:13.508Z,2680
2017-02-23T10:41:13.480Z,2645
2017-02-23T10:42:13.454Z,2540
2017-02-23T10:43:13.439Z,2595
2017-02-23T10:44:13.037Z,2565
2017-02-23T10:45:13.633Z,2605
2017-02-23T10:46:13.364Z,2480
2017-02-23T10:47:12.994Z,2135
2017-02-23T10:48:13.377Z,2270
2017-02-23T10:49:13.352Z,2450
2017-02-23T10:50:13.315Z,2305
2017-02-23T10:51:13.557Z,2395
2017-02-23T10:52:26.709Z,2210
2017-02-23T10:53:12.908Z,2335
2017-02-23T10:54:12.894Z,2290
2017-02-23T10:55:12.883Z,2470
2017-02-23T10:56:12.451Z,2625
2017-02-23T10:57:13.429Z,2650
2017-02-23T10:58:12.812Z,2595
2017-02-23T10:59:13.173Z,2620
2017-02-23T11:00:13.168Z,2630
2017-02-23T11:01:12.797Z,2700
2017-02-23T11:02:12.745Z,2755
2017-02-23T11:03:13.101Z,2900
2017-02-23T11:04:12.725Z,2930
2017-02-23T11:05:13.105Z,2835
2017-02-23T11:06:12.674Z,2570
2017-02-23T11:07:12.657Z,2850
2017-02-23T11:08:12.661Z,2885
2017-02-23T11:09:13.007Z,2715
2017-02-23T11:10:12.617Z,2685
2017-02-23T11:11:12.988Z,2800
2017-02-23T11:12:12.602Z,2705
2017-02-23T11:13:12.570Z,2780
2017-02-23T11:14:12.566Z,2780
2017-02-23T11:15:12.799Z,2750
2017-02-23T11:16:12.556Z,2755
2017-02-23T11:17:12.900Z,2715
2017-02-23T11:18:12.894Z,2450
2017-02-23T11:19:12.891Z,2450
2017-02-23T11:20:12.883Z,2305
2017-02-23T11:21:12.824Z,2365
2017-02-23T11:22:12.449Z,2545
2017-02-23T11:23:12.794Z,2530
2017-02-23T11:24:12.390Z,2525
2017-02-23T11:25:12.763Z,2535
2017-02-23T11:26:11.985Z,2520
2017-02-23T11:27:12.738Z,2590
2017-02-23T11:28:12.744Z,2610
2017-02-23T11:29:12.337Z,2720
2017-02-23T11:30:11.935Z,2900
2017-02-23T11:31:11.912Z,2685
2017-02-23T11:32:12.866Z,2745
2017-02-23T11:33:12.667Z,2890
2017-02-23T11:34:12.628Z,2735
2017-02-23T11:35:12.683Z,2835
2017-02-23T11:36:11.823Z,2860
2017-02-23T11:37:12.576Z,2820
2017-02-23T11:38:11.788Z,2980
2017-02-23T11:39:12.542Z,1880
2017-02-23T11:40:11.824Z,2880
2017-02-23T11:41:12.181Z,2665
2017-02-23T11:42:12.159Z,2705
2017-02-23T11:43:12.481Z,2600
2017-02-23T11:44:12.096Z,2805
2017-02-23T11:45:12.467Z,2740
2017-02-23T11:46:12.445Z,2855
2017-02-23T11:47:12.443Z,2775
2017-02-23T11:48:12.416Z,3315
2017-02-23T11:49:12.443Z,3210
2017-02-23T11:50:12.030Z,2630
2017-02-23T11:51:12.410Z,2555
2017-02-23T11:52:12.364Z,2845
2017-02-23T11:53:11.945Z,2930
2017-02-23T11:54:12.394Z,3110
2017-02-23T11:55:12.366Z,2895
2017-02-23T11:56:12.315Z,2845
2017-02-23T11:57:12.303Z,2930
2017-02-23T11:58:12.280Z,3030
2017-02-23T11:59:12.270Z,1855
2017-02-23T12:00:12.256Z,1715
2017-02-23T12:01:12.445Z,2370
2017-02-23T12:02:11.822Z,3310
2017-02-23T12:03:12.189Z,2590
2017-02-23T12:04:12.190Z,2160
2017-02-23T12:05:12.181Z,1555
2017-02-23T12:06:12.185Z,1590
2017-02-23T12:07:12.164Z,1895
2017-02-23T12:08:12.135Z,1975
2017-02-23T12:09:12.158Z,2085
2017-02-23T12:10:12.101Z,1725
2017-02-23T12:11:12.079Z,1630
2017-02-23T12:12:11.708Z,1540
2017-02-23T12:13:11.650Z,1555
2017-02-23T12:14:12.046Z,1625
2017-02-23T12:15:12.006Z,1850
2017-02-23T12:16:11.985Z,2045
2017-02-23T12:17:11.971Z,2270
2017-02-23T12:18:11.983Z,1725
2017-02-23T12:19:11.975Z,1500
2017-02-23T12:20:11.938Z,1415
2017-02-23T12:21:11.893Z,1360
2017-02-23T12:22:11.918Z,1435
2017-02-23T12:23:11.886Z,1585
2017-02-23T12:24:11.859Z,1985
2017-02-23T12:25:11.890Z,1980
2017-02-23T12:26:11.846Z,1585
2017-02-23T12:27:11.832Z,1805
2017-02-23T12:28:11.426Z,2635
2017-02-23T12:29:11.806Z,2930
2017-02-23T12:30:11.777Z,2640
2017-02-23T12:31:11.745Z,2750
2017-02-23T12:32:11.772Z,2770
2017-02-23T12:33:11.737Z,3060
2017-02-23T12:34:11.742Z,2590
2017-02-23T12:35:11.759Z,2725
2017-02-23T12:36:11.744Z,2255
2017-02-23T12:37:11.689Z,2615
2017-02-23T12:38:11.654Z,2725
2017-02-23T12:39:11.624Z,3015
2017-02-23T12:40:11.256Z,2485
2017-02-23T12:41:11.629Z,3090
2017-02-23T12:42:11.600Z,3495
2017-02-23T12:43:11.618Z,3360
2017-02-23T12:44:11.572Z,3255
2017-02-23T12:45:11.575Z,3215
2017-02-23T12:46:11.547Z,3365
2017-02-23T12:47:11.544Z,2875
2017-02-23T12:48:11.147Z,2895
2017-02-23T12:49:11.506Z,3045
2017-02-23T12:50:11.493Z,2985
2017-02-23T12:51:11.502Z,2600
2017-02-23T12:52:11.475Z,2735
2017-02-23T12:53:11.491Z,2775
2017-02-23T12:54:11.441Z,2545
2017-02-23T12:55:11.039Z,2480
2017-02-23T12:56:11.410Z,2385
2017-02-23T12:57:11.400Z,2615
2017-02-23T12:58:11.381Z,2385
2017-02-23T12:59:11.360Z,2535
2017-02-23T13:00:11.400Z,2460
2017-02-23T13:01:11.327Z,2400
2017-02-23T13:02:11.318Z,2425
2017-02-23T13:03:11.329Z,2225
2017-02-23T13:04:11.292Z,2110
2017-02-23T13:05:11.285Z,2290
2017-02-23T13:06:11.256Z,2345
2017-02-23T13:07:11.265Z,2405
2017-02-23T13:08:11.233Z,2515
2017-02-23T13:09:11.223Z,2460
2017-02-23T13:10:11.218Z,2505
2017-02-23T13:11:11.194Z,2505
2017-02-23T13:12:11.195Z,2280
2017-02-23T13:13:11.174Z,2160
2017-02-23T13:14:10.763Z,2170
2017-02-23T13:15:10.766Z,2485
2017-02-23T13:16:11.110Z,2105
2017-02-23T13:17:11.095Z,1820
2017-02-23T13:18:10.724Z,2145
2017-02-23T13:19:10.296Z,2280
2017-02-23T13:20:11.085Z,1945
2017-02-23T13:21:10.696Z,1955
2017-02-23T13:22:11.046Z,1840
2017-02-23T13:23:11.054Z,1995
2017-02-23T13:24:10.997Z,1750
2017-02-23T13:25:11.038Z,1765
2017-02-23T13:26:10.238Z,1620
2017-02-23T13:27:10.982Z,1795
2017-02-23T13:28:11.003Z,1755
2017-02-23T13:29:10.933Z,1905
2017-02-23T13:30:10.943Z,1735
2017-02-23T13:31:10.926Z,1445
2017-02-23T13:32:10.925Z,1610
2017-02-23T13:33:10.888Z,2145
2017-02-23T13:34:10.473Z,2270
2017-02-23T13:35:10.894Z,2565
2017-02-23T13:36:10.466Z,2060
2017-02-23T13:37:10.830Z,2705
2017-02-23T13:38:10.428Z,2335
2017-02-23T13:39:10.821Z,1980
2017-02-23T13:40:10.396Z,3115
2017-02-23T13:41:10.780Z,3885
2017-02-23T13:42:10.384Z,3425
2017-02-23T13:43:10.757Z,2055
2017-02-23T13:44:10.353Z,2480
2017-02-23T13:45:10.721Z,3810
2017-02-23T13:46:10.699Z,3250
2017-02-23T13:47:10.303Z,2960
2017-02-23T13:48:09.896Z,1600
2017-02-23T13:49:10.678Z,1430
2017-02-23T13:50:10.241Z,1340
2017-02-23T13:51:10.641Z,1300
2017-02-23T13:52:10.644Z,1295
2017-02-23T13:53:10.213Z,1280
2017-02-23T13:54:10.580Z,1255
2017-02-23T13:55:10.219Z,1230
2017-02-23T13:56:10.169Z,1215
2017-02-23T13:57:10.162Z,1190
2017-02-23T13:58:10.174Z,1180